Bayamón, Puerto Rico

12:45 AM AST on September 30, 2016 (GMT -0400)
| | Change Station

Elev -9999 ft 0.00 °N, 0.00 °E | Updated

Cloudy
Cloudy
81 °F
Feels Like 86 °F
N
12
Wind Variable Wind from East
Gusts 17 mph

Today
High -- | Low -- °F
--% Chance of Precip.
Yesterday
High -- | Low -- °F
Precip. -- in
Pressure 29.96 in
Visibility 10.0 miles
Clouds Few 2800 ft
Scattered Clouds 3200 ft
Heat Index 86 °F
Dew Point 76 °F
Humidity 85%
Rainfall --
Snow Depth Not available.
6:14 AM 6:13 PM
Waning Crescent, 1% visible
METAR TJSJ 300356Z 08012KT 10SM FEW028 SCT032 28/25 A2996 RMK AO2 SLP146 T02830250 403220256
Pressure 29.96 in
Visibility 10.0 miles
Clouds Few 2800 ft
Scattered Clouds 3200 ft
Heat Index 86 °F
Dew Point 76 °F
Humidity 85%
Rainfall --
Snow Depth Not available.
6:14 AM 6:13 PM
Waning Crescent, 1% visible
METAR TJSJ 300356Z 08012KT 10SM FEW028 SCT032 28/25 A2996 RMK AO2 SLP146 T02830250 403220256

10-Day Weather Forecast

Almanac

Astronomy

Sep. 30, 2016 Rise Set
Actual Time
Civil Twilight
Nautical Twilight
Astronomical Twilight
Moon
Length of Visible Light
Length of Day
Tomorrow will be .
, % of the Moon is Illuminated

Today's Extremes

Country Highs Country Lows

Community

WunderPhotos

Upload Photos

1,942,665 photos uploaded!

WunderBlog® & News

Nearby

Air Quality

  Air Quality AQ Index Pollutant
Not available.

Snow Depth

Station Depth Elevation

Earthquake Activity

City Distance Mag. Time & Date
Minimum magnitude displayed is 2.5.

Coastal Water Temperatures

Place Temperature

Stations

Nearby Weather Stations

Station Location Temp. Windchill Dew Point Humidity Wind Precip. Elev Updated Type